sensor_id;sensor_type;location;lat;lon;timestamp;temperature;humidity
20862;DHT22;10591;52.532;13.348;2023-04-24T00:01:16;12.35;77.94
20862;DHT22;10591;52.532;13.348;2023-04-24T00:03:47;12.24;78.29
20862;DHT22;10591;52.532;13.348;2023-04-24T00:06:18;12.28;78.45
20862;DHT22;10591;52.532;13.348;2023-04-24T00:08:48;12.22;78.62
20862;DHT22;10591;52.532;13.348;2023-04-24T00:11:22;12.23;78.76
20862;DHT22;10591;52.532;13.348;2023-04-24T00:13:53;12.19;78.83
20862;DHT22;10591;52.532;13.348;2023-04-24T00:16:23;12.18;78.98
20862;DHT22;10591;52.532;13.348;2023-04-24T00:18:56;12.16;79.10
20862;DHT22;10591;52.532;13.348;2023-04-24T00:21:28;12.23;78.94
20862;DHT22;10591;52.532;13.348;2023-04-24T00:24:00;12.16;79.20
20862;DHT22;10591;52.532;13.348;2023-04-24T00:26:31;12.04;79.38
20862;DHT22;10591;52.532;13.348;2023-04-24T00:29:01;12.06;79.48
20862;DHT22;10591;52.532;13.348;2023-04-24T00:31:33;12.07;79.56
20862;DHT22;10591;52.532;13.348;2023-04-24T00:34:06;12.02;79.72
20862;DHT22;10591;52.532;13.348;2023-04-24T00:36:40;11.97;79.81
20862;DHT22;10591;52.532;13.348;2023-04-24T00:39:10;11.94;80.05
20862;DHT22;10591;52.532;13.348;2023-04-24T00:41:40;11.90;80.19
20862;DHT22;10591;52.532;13.348;2023-04-24T00:44:11;11.92;80.25
20862;DHT22;10591;52.532;13.348;2023-04-24T00:46:43;11.92;80.37
20862;DHT22;10591;52.532;13.348;2023-04-24T00:49:14;11.92;80.39
20862;DHT22;10591;52.532;13.348;2023-04-24T00:51:46;11.86;80.48
20862;DHT22;10591;52.532;13.348;2023-04-24T00:54:19;11.88;80.46
20862;DHT22;10591;52.532;13.348;2023-04-24T00:56:52;11.85;80.72
20862;DHT22;10591;52.532;13.348;2023-04-24T00:59:26;11.86;80.66
20862;DHT22;10591;52.532;13.348;2023-04-24T01:01:58;11.92;80.69
20862;DHT22;10591;52.532;13.348;2023-04-24T01:04:29;11.82;80.84
20862;DHT22;10591;52.532;13.348;2023-04-24T01:07:01;11.85;80.80
20862;DHT22;10591;52.532;13.348;2023-04-24T01:09:32;11.88;80.90
20862;DHT22;10591;52.532;13.348;2023-04-24T01:12:03;11.91;80.79
20862;DHT22;10591;52.532;13.348;2023-04-24T01:14:33;11.92;80.69
20862;DHT22;10591;52.532;13.348;2023-04-24T01:17:05;11.93;80.50
20862;DHT22;10591;52.532;13.348;2023-04-24T01:19:38;11.80;80.86
20862;DHT22;10591;52.532;13.348;2023-04-24T01:22:13;11.80;80.86
20862;DHT22;10591;52.532;13.348;2023-04-24T01:24:46;11.80;80.91
20862;DHT22;10591;52.532;13.348;2023-04-24T01:27:17;11.71;81.26
20862;DHT22;10591;52.532;13.348;2023-04-24T01:29:48;11.80;81.10
20862;DHT22;10591;52.532;13.348;2023-04-24T01:32:21;11.72;81.14
20862;DHT22;10591;52.532;13.348;2023-04-24T01:34:52;11.64;81.58
20862;DHT22;10591;52.532;13.348;2023-04-24T01:37:23;11.65;81.61
20862;DHT22;10591;52.532;13.348;2023-04-24T01:39:55;11.75;81.48
20862;DHT22;10591;52.532;13.348;2023-04-24T01:42:26;11.70;81.52
20862;DHT22;10591;52.532;13.348;2023-04-24T01:44:57;11.76;81.61
20862;DHT22;10591;52.532;13.348;2023-04-24T01:47:32;11.75;81.54
20862;DHT22;10591;52.532;13.348;2023-04-24T01:50:05;11.79;81.49
20862;DHT22;10591;52.532;13.348;2023-04-24T01:52:36;11.88;81.22
20862;DHT22;10591;52.532;13.348;2023-04-24T01:55:07;11.90;81.18
20862;DHT22;10591;52.532;13.348;2023-04-24T01:57:38;11.77;81.51
20862;DHT22;10591;52.532;13.348;2023-04-24T02:00:10;11.81;81.77
20862;DHT22;10591;52.532;13.348;2023-04-24T02:02:42;11.76;81.73
20862;DHT22;10591;52.532;13.348;2023-04-24T02:05:15;11.72;82.01
20862;DHT22;10591;52.532;13.348;2023-04-24T02:07:46;11.72;82.16
20862;DHT22;10591;52.532;13.348;2023-04-24T02:10:18;11.72;82.11
20862;DHT22;10591;52.532;13.348;2023-04-24T02:12:49;11.80;81.79
20862;DHT22;10591;52.532;13.348;2023-04-24T02:15:19;11.78;81.93
20862;DHT22;10591;52.532;13.348;2023-04-24T02:17:50;11.69;82.39
20862;DHT22;10591;52.532;13.348;2023-04-24T02:20:20;11.66;82.39
20862;DHT22;10591;52.532;13.348;2023-04-24T02:22:51;11.64;82.51
20862;DHT22;10591;52.532;13.348;2023-04-24T02:25:22;11.58;82.66
20862;DHT22;10591;52.532;13.348;2023-04-24T02:27:52;11.57;82.68
20862;DHT22;10591;52.532;13.348;2023-04-24T02:30:23;11.60;82.93
20862;DHT22;10591;52.532;13.348;2023-04-24T02:32:53;11.62;82.67
20862;DHT22;10591;52.532;13.348;2023-04-24T02:35:24;11.62;82.70
20862;DHT22;10591;52.532;13.348;2023-04-24T02:37:56;11.81;82.52
20862;DHT22;10591;52.532;13.348;2023-04-24T02:40:26;11.70;82.45
20862;DHT22;10591;52.532;13.348;2023-04-24T02:42:57;11.65;82.67
20862;DHT22;10591;52.532;13.348;2023-04-24T02:45:27;11.77;82.31
20862;DHT22;10591;52.532;13.348;2023-04-24T02:47:58;11.64;82.77
20862;DHT22;10591;52.532;13.348;2023-04-24T02:50:29;11.69;82.71
20862;DHT22;10591;52.532;13.348;2023-04-24T02:53:00;11.66;82.68
20862;DHT22;10591;52.532;13.348;2023-04-24T02:55:31;11.58;82.93
20862;DHT22;10591;52.532;13.348;2023-04-24T02:58:01;11.64;82.72
20862;DHT22;10591;52.532;13.348;2023-04-24T03:00:33;11.74;82.60
20862;DHT22;10591;52.532;13.348;2023-04-24T03:03:04;11.70;82.59
20862;DHT22;10591;52.532;13.348;2023-04-24T03:05:36;11.61;82.81
20862;DHT22;10591;52.532;13.348;2023-04-24T03:08:07;11.70;82.78
20862;DHT22;10591;52.532;13.348;2023-04-24T03:10:38;11.82;82.57
20862;DHT22;10591;52.532;13.348;2023-04-24T03:13:10;11.75;82.58
20862;DHT22;10591;52.532;13.348;2023-04-24T03:15:41;11.77;82.49
20862;DHT22;10591;52.532;13.348;2023-04-24T03:18:11;11.74;82.60
20862;DHT22;10591;52.532;13.348;2023-04-24T03:20:42;11.78;82.52
20862;DHT22;10591;52.532;13.348;2023-04-24T03:23:13;11.86;82.19
20862;DHT22;10591;52.532;13.348;2023-04-24T03:25:43;11.86;82.24
20862;DHT22;10591;52.532;13.348;2023-04-24T03:28:15;11.91;82.01
20862;DHT22;10591;52.532;13.348;2023-04-24T03:30:45;11.81;82.18
20862;DHT22;10591;52.532;13.348;2023-04-24T03:33:16;11.98;81.90
20862;DHT22;10591;52.532;13.348;2023-04-24T03:35:47;11.88;82.20
20862;DHT22;10591;52.532;13.348;2023-04-24T03:38:19;12.00;81.96
20862;DHT22;10591;52.532;13.348;2023-04-24T03:40:52;12.01;82.13
20862;DHT22;10591;52.532;13.348;2023-04-24T03:43:23;12.07;81.85
20862;DHT22;10591;52.532;13.348;2023-04-24T03:45:54;11.95;81.87
20862;DHT22;10591;52.532;13.348;2023-04-24T03:48:24;12.01;81.69
20862;DHT22;10591;52.532;13.348;2023-04-24T03:50:56;12.04;81.55
20862;DHT22;10591;52.532;13.348;2023-04-24T03:53:27;12.24;81.12
20862;DHT22;10591;52.532;13.348;2023-04-24T03:55:57;12.10;81.15
20862;DHT22;10591;52.532;13.348;2023-04-24T03:58:28;12.11;81.05
20862;DHT22;10591;52.532;13.348;2023-04-24T04:00:58;12.15;81.23
20862;DHT22;10591;52.532;13.348;2023-04-24T04:03:29;12.18;81.16
20862;DHT22;10591;52.532;13.348;2023-04-24T04:06:00;12.12;81.08
20862;DHT22;10591;52.532;13.348;2023-04-24T04:08:30;12.16;80.97
20862;DHT22;10591;52.532;13.348;2023-04-24T04:11:01;12.16;81.04
20862;DHT22;10591;52.532;13.348;2023-04-24T04:13:34;12.16;80.89
20862;DHT22;10591;52.532;13.348;2023-04-24T04:16:04;12.14;80.99
20862;DHT22;10591;52.532;13.348;2023-04-24T04:18:35;12.08;81.12
20862;DHT22;10591;52.532;13.348;2023-04-24T04:21:07;12.28;80.72
20862;DHT22;10591;52.532;13.348;2023-04-24T04:23:37;12.22;80.41
20862;DHT22;10591;52.532;13.348;2023-04-24T04:26:12;12.26;80.20
20862;DHT22;10591;52.532;13.348;2023-04-24T04:28:42;12.21;80.53
20862;DHT22;10591;52.532;13.348;2023-04-24T04:31:14;12.27;80.23
20862;DHT22;10591;52.532;13.348;2023-04-24T04:33:46;12.22;80.51
20862;DHT22;10591;52.532;13.348;2023-04-24T04:36:17;12.25;80.49
20862;DHT22;10591;52.532;13.348;2023-04-24T04:38:51;12.30;80.43
20862;DHT22;10591;52.532;13.348;2023-04-24T04:41:23;12.32;80.13
20862;DHT22;10591;52.532;13.348;2023-04-24T04:43:54;12.47;79.52
20862;DHT22;10591;52.532;13.348;2023-04-24T04:46:26;12.55;79.58
20862;DHT22;10591;52.532;13.348;2023-04-24T04:48:57;12.40;79.83
20862;DHT22;10591;52.532;13.348;2023-04-24T04:51:28;12.52;79.53
20862;DHT22;10591;52.532;13.348;2023-04-24T04:54:00;12.59;79.00
20862;DHT22;10591;52.532;13.348;2023-04-24T04:56:31;12.71;79.33
20862;DHT22;10591;52.532;13.348;2023-04-24T04:59:02;12.67;79.16
20862;DHT22;10591;52.532;13.348;2023-04-24T05:01:32;12.74;78.63
20862;DHT22;10591;52.532;13.348;2023-04-24T05:04:03;12.87;78.48
20862;DHT22;10591;52.532;13.348;2023-04-24T05:06:34;12.65;78.81
20862;DHT22;10591;52.532;13.348;2023-04-24T05:09:05;12.92;78.50
20862;DHT22;10591;52.532;13.348;2023-04-24T05:11:36;13.09;77.44
20862;DHT22;10591;52.532;13.348;2023-04-24T05:14:09;13.22;77.06
20862;DHT22;10591;52.532;13.348;2023-04-24T05:16:40;13.40;76.83
20862;DHT22;10591;52.532;13.348;2023-04-24T05:19:10;13.61;75.46
20862;DHT22;10591;52.532;13.348;2023-04-24T05:21:42;13.42;76.01
20862;DHT22;10591;52.532;13.348;2023-04-24T05:24:13;13.72;75.16
20862;DHT22;10591;52.532;13.348;2023-04-24T05:26:46;14.09;74.95
20862;DHT22;10591;52.532;13.348;2023-04-24T05:29:16;15.84;69.63
20862;DHT22;10591;52.532;13.348;2023-04-24T05:31:48;16.80;65.67
20862;DHT22;10591;52.532;13.348;2023-04-24T05:34:21;17.44;63.13
20862;DHT22;10591;52.532;13.348;2023-04-24T05:36:52;16.78;64.41
20862;DHT22;10591;52.532;13.348;2023-04-24T05:39:24;16.55;65.03
20862;DHT22;10591;52.532;13.348;2023-04-24T05:41:55;17.16;63.38
20862;DHT22;10591;52.532;13.348;2023-04-24T05:44:27;17.98;61.12
20862;DHT22;10591;52.532;13.348;2023-04-24T05:47:00;18.03;59.95
20862;DHT22;10591;52.532;13.348;2023-04-24T05:49:32;17.52;61.17
20862;DHT22;10591;52.532;13.348;2023-04-24T05:52:03;17.29;62.18
20862;DHT22;10591;52.532;13.348;2023-04-24T05:54:35;16.96;62.77
20862;DHT22;10591;52.532;13.348;2023-04-24T05:57:06;17.07;62.58
20862;DHT22;10591;52.532;13.348;2023-04-24T05:59:38;16.88;62.52
20862;DHT22;10591;52.532;13.348;2023-04-24T06:02:10;18.59;59.03
20862;DHT22;10591;52.532;13.348;2023-04-24T06:04:43;18.88;57.68
20862;DHT22;10591;52.532;13.348;2023-04-24T06:07:15;19.05;57.23
20862;DHT22;10591;52.532;13.348;2023-04-24T06:09:49;18.40;58.04
20862;DHT22;10591;52.532;13.348;2023-04-24T06:12:19;19.08;56.38
20862;DHT22;10591;52.532;13.348;2023-04-24T06:14:50;21.11;52.35
20862;DHT22;10591;52.532;13.348;2023-04-24T06:17:24;20.54;52.33
20862;DHT22;10591;52.532;13.348;2023-04-24T06:19:56;19.12;55.94
20862;DHT22;10591;52.532;13.348;2023-04-24T06:22:28;18.98;56.13
20862;DHT22;10591;52.532;13.348;2023-04-24T06:25:00;18.65;57.20
20862;DHT22;10591;52.532;13.348;2023-04-24T06:27:32;18.73;56.43
20862;DHT22;10591;52.532;13.348;2023-04-24T06:30:04;17.83;58.70
20862;DHT22;10591;52.532;13.348;2023-04-24T06:32:35;16.79;61.92
20862;DHT22;10591;52.532;13.348;2023-04-24T06:35:08;16.27;63.29
20862;DHT22;10591;52.532;13.348;2023-04-24T06:37:42;16.15;64.13
20862;DHT22;10591;52.532;13.348;2023-04-24T06:40:13;16.13;63.85
20862;DHT22;10591;52.532;13.348;2023-04-24T06:42:43;15.87;64.60
20862;DHT22;10591;52.532;13.348;2023-04-24T06:45:14;15.91;64.23
20862;DHT22;10591;52.532;13.348;2023-04-24T06:47:45;15.70;64.94
20862;DHT22;10591;52.532;13.348;2023-04-24T06:50:16;15.68;64.93
20862;DHT22;10591;52.532;13.348;2023-04-24T06:52:48;15.61;64.81
20862;DHT22;10591;52.532;13.348;2023-04-24T06:55:19;15.78;64.72
20862;DHT22;10591;52.532;13.348;2023-04-24T06:57:51;16.02;63.85
20862;DHT22;10591;52.532;13.348;2023-04-24T07:00:25;15.99;63.42
20862;DHT22;10591;52.532;13.348;2023-04-24T07:02:56;15.82;63.45
20862;DHT22;10591;52.532;13.348;2023-04-24T07:05:33;15.72;63.71
20862;DHT22;10591;52.532;13.348;2023-04-24T07:08:08;15.83;63.53
20862;DHT22;10591;52.532;13.348;2023-04-24T07:10:44;15.69;63.13
20862;DHT22;10591;52.532;13.348;2023-04-24T07:13:15;15.78;62.86
20862;DHT22;10591;52.532;13.348;2023-04-24T07:15:48;15.70;62.76
20862;DHT22;10591;52.532;13.348;2023-04-24T07:18:23;16.05;60.90
20862;DHT22;10591;52.532;13.348;2023-04-24T07:21:03;15.62;62.20
20862;DHT22;10591;52.532;13.348;2023-04-24T07:23:33;16.14;61.62
20862;DHT22;10591;52.532;13.348;2023-04-24T07:26:04;16.48;58.70
20862;DHT22;10591;52.532;13.348;2023-04-24T07:28:36;16.48;59.23
20862;DHT22;10591;52.532;13.348;2023-04-24T07:31:09;17.18;61.00
20862;DHT22;10591;52.532;13.348;2023-04-24T07:33:41;17.48;57.39
20862;DHT22;10591;52.532;13.348;2023-04-24T07:36:11;17.58;56.47
20862;DHT22;10591;52.532;13.348;2023-04-24T07:38:45;17.96;55.53
20862;DHT22;10591;52.532;13.348;2023-04-24T07:41:16;17.89;52.81
20862;DHT22;10591;52.532;13.348;2023-04-24T07:43:47;17.57;53.85
20862;DHT22;10591;52.532;13.348;2023-04-24T07:46:17;17.18;55.56
20862;DHT22;10591;52.532;13.348;2023-04-24T07:48:49;16.93;55.98
20862;DHT22;10591;52.532;13.348;2023-04-24T07:51:22;16.80;56.81
20862;DHT22;10591;52.532;13.348;2023-04-24T07:53:54;16.73;57.34
20862;DHT22;10591;52.532;13.348;2023-04-24T07:56:24;16.96;56.85
20862;DHT22;10591;52.532;13.348;2023-04-24T07:58:58;16.85;57.14
20862;DHT22;10591;52.532;13.348;2023-04-24T08:01:29;17.22;56.23
20862;DHT22;10591;52.532;13.348;2023-04-24T08:04:00;17.34;55.53
20862;DHT22;10591;52.532;13.348;2023-04-24T08:06:31;17.24;55.20
20862;DHT22;10591;52.532;13.348;2023-04-24T08:09:02;17.39;54.74
20862;DHT22;10591;52.532;13.348;2023-04-24T08:11:33;17.52;54.38
20862;DHT22;10591;52.532;13.348;2023-04-24T08:14:04;17.65;53.27
20862;DHT22;10591;52.532;13.348;2023-04-24T08:16:35;17.54;53.01
20862;DHT22;10591;52.532;13.348;2023-04-24T08:19:06;17.57;53.41
20862;DHT22;10591;52.532;13.348;2023-04-24T08:21:39;17.90;52.41
20862;DHT22;10591;52.532;13.348;2023-04-24T08:24:10;17.99;52.48
20862;DHT22;10591;52.532;13.348;2023-04-24T08:26:41;17.96;52.32
20862;DHT22;10591;52.532;13.348;2023-04-24T08:29:14;17.88;52.75
20862;DHT22;10591;52.532;13.348;2023-04-24T08:31:45;17.84;52.03
20862;DHT22;10591;52.532;13.348;2023-04-24T08:34:16;18.08;51.87
20862;DHT22;10591;52.532;13.348;2023-04-24T08:36:47;18.30;51.00
20862;DHT22;10591;52.532;13.348;2023-04-24T08:39:19;18.46;50.65
20862;DHT22;10591;52.532;13.348;2023-04-24T08:41:51;18.31;51.38
20862;DHT22;10591;52.532;13.348;2023-04-24T08:44:23;18.22;50.42
20862;DHT22;10591;52.532;13.348;2023-04-24T08:46:55;18.16;50.07
20862;DHT22;10591;52.532;13.348;2023-04-24T08:49:28;18.60;49.30
20862;DHT22;10591;52.532;13.348;2023-04-24T08:51:59;18.55;49.24
20862;DHT22;10591;52.532;13.348;2023-04-24T08:54:31;18.77;48.76
20862;DHT22;10591;52.532;13.348;2023-04-24T08:57:04;19.33;48.26
20862;DHT22;10591;52.532;13.348;2023-04-24T08:59:37;18.92;48.90
20862;DHT22;10591;52.532;13.348;2023-04-24T09:02:10;19.08;49.50
20862;DHT22;10591;52.532;13.348;2023-04-24T09:04:41;18.36;50.09
20862;DHT22;10591;52.532;13.348;2023-04-24T09:07:15;18.46;49.89
20862;DHT22;10591;52.532;13.348;2023-04-24T09:09:48;18.66;49.44
20862;DHT22;10591;52.532;13.348;2023-04-24T09:12:21;18.47;49.98
20862;DHT22;10591;52.532;13.348;2023-04-24T09:14:52;18.61;49.81
20862;DHT22;10591;52.532;13.348;2023-04-24T09:17:24;18.55;50.25
20862;DHT22;10591;52.532;13.348;2023-04-24T09:19:56;18.43;50.64
20862;DHT22;10591;52.532;13.348;2023-04-24T09:22:29;18.70;50.26
20862;DHT22;10591;52.532;13.348;2023-04-24T09:25:06;18.56;50.94
20862;DHT22;10591;52.532;13.348;2023-04-24T09:27:37;18.44;51.52
20862;DHT22;10591;52.532;13.348;2023-04-24T09:30:10;18.78;50.94
20862;DHT22;10591;52.532;13.348;2023-04-24T09:32:40;18.62;51.98
20862;DHT22;10591;52.532;13.348;2023-04-24T09:35:13;19.07;51.57
20862;DHT22;10591;52.532;13.348;2023-04-24T09:37:46;18.74;52.34
20862;DHT22;10591;52.532;13.348;2023-04-24T09:40:20;18.29;53.64
20862;DHT22;10591;52.532;13.348;2023-04-24T09:42:54;18.09;53.61
20862;DHT22;10591;52.532;13.348;2023-04-24T09:45:35;18.05;53.97
20862;DHT22;10591;52.532;13.348;2023-04-24T09:48:03;18.25;54.25
20862;DHT22;10591;52.532;13.348;2023-04-24T09:50:36;18.18;54.27
20862;DHT22;10591;52.532;13.348;2023-04-24T09:53:06;18.46;53.69
20862;DHT22;10591;52.532;13.348;2023-04-24T09:55:51;18.52;53.61
20862;DHT22;10591;52.532;13.348;2023-04-24T09:58:17;18.50;53.95
20862;DHT22;10591;52.532;13.348;2023-04-24T10:00:48;18.68;53.10
20862;DHT22;10591;52.532;13.348;2023-04-24T10:03:20;19.20;51.91
20862;DHT22;10591;52.532;13.348;2023-04-24T10:06:29;19.96;49.93
20862;DHT22;10591;52.532;13.348;2023-04-24T10:08:56;19.84;50.13
20862;DHT22;10591;52.532;13.348;2023-04-24T10:11:28;20.25;49.20
20862;DHT22;10591;52.532;13.348;2023-04-24T10:14:00;20.12;49.51
20862;DHT22;10591;52.532;13.348;2023-04-24T10:16:32;20.36;49.16
20862;DHT22;10591;52.532;13.348;2023-04-24T10:19:04;20.30;48.70
20862;DHT22;10591;52.532;13.348;2023-04-24T10:21:37;20.12;49.06
20862;DHT22;10591;52.532;13.348;2023-04-24T10:24:09;20.27;48.95
20862;DHT22;10591;52.532;13.348;2023-04-24T10:26:41;20.38;48.96
20862;DHT22;10591;52.532;13.348;2023-04-24T10:29:13;19.11;51.77
20862;DHT22;10591;52.532;13.348;2023-04-24T10:31:45;18.23;53.76
20862;DHT22;10591;52.532;13.348;2023-04-24T10:34:18;18.98;52.28
20862;DHT22;10591;52.532;13.348;2023-04-24T10:36:54;18.78;52.50
20862;DHT22;10591;52.532;13.348;2023-04-24T10:39:27;18.42;53.34
20862;DHT22;10591;52.532;13.348;2023-04-24T10:41:58;18.32;53.71
20862;DHT22;10591;52.532;13.348;2023-04-24T10:44:40;17.99;54.27
20862;DHT22;10591;52.532;13.348;2023-04-24T10:47:02;17.36;55.96
20862;DHT22;10591;52.532;13.348;2023-04-24T10:49:32;17.84;54.99
20862;DHT22;10591;52.532;13.348;2023-04-24T10:52:04;18.16;53.87
20862;DHT22;10591;52.532;13.348;2023-04-24T10:54:41;17.95;54.67
20862;DHT22;10591;52.532;13.348;2023-04-24T10:57:26;18.20;54.30
20862;DHT22;10591;52.532;13.348;2023-04-24T11:02:47;17.71;54.96
20862;DHT22;10591;52.532;13.348;2023-04-24T11:05:22;17.57;55.04
20862;DHT22;10591;52.532;13.348;2023-04-24T11:08:16;18.26;53.45
20862;DHT22;10591;52.532;13.348;2023-04-24T11:10:58;18.10;53.77
20862;DHT22;10591;52.532;13.348;2023-04-24T11:13:24;19.23;51.59
20862;DHT22;10591;52.532;13.348;2023-04-24T11:16:20;19.62;49.75
20862;DHT22;10591;52.532;13.348;2023-04-24T11:18:59;19.48;50.37
20862;DHT22;10591;52.532;13.348;2023-04-24T11:21:25;19.56;49.75
20862;DHT22;10591;52.532;13.348;2023-04-24T11:23:56;19.96;49.26
20862;DHT22;10591;52.532;13.348;2023-04-24T11:26:27;19.36;49.75
20862;DHT22;10591;52.532;13.348;2023-04-24T11:29:09;19.36;50.32
20862;DHT22;10591;52.532;13.348;2023-04-24T11:31:44;19.22;50.52
20862;DHT22;10591;52.532;13.348;2023-04-24T11:34:16;18.84;51.73
20862;DHT22;10591;52.532;13.348;2023-04-24T11:36:47;18.21;55.98
20862;DHT22;10591;52.532;13.348;2023-04-24T11:39:18;17.60;59.46
20862;DHT22;10591;52.532;13.348;2023-04-24T11:41:49;16.62;64.73
20862;DHT22;10591;52.532;13.348;2023-04-24T11:44:21;16.19;66.66
20862;DHT22;10591;52.532;13.348;2023-04-24T11:46:52;16.03;68.84
20862;DHT22;10591;52.532;13.348;2023-04-24T11:49:25;15.97;69.60
20862;DHT22;10591;52.532;13.348;2023-04-24T11:51:56;15.92;69.04
20862;DHT22;10591;52.532;13.348;2023-04-24T11:54:29;16.46;66.65
20862;DHT22;10591;52.532;13.348;2023-04-24T11:56:59;16.66;63.29
20862;DHT22;10591;52.532;13.348;2023-04-24T11:59:36;17.42;62.67
20862;DHT22;10591;52.532;13.348;2023-04-24T12:02:08;18.24;60.04
20862;DHT22;10591;52.532;13.348;2023-04-24T12:04:40;17.96;61.33
20862;DHT22;10591;52.532;13.348;2023-04-24T12:07:11;18.60;60.45
20862;DHT22;10591;52.532;13.348;2023-04-24T12:09:48;18.18;60.81
20862;DHT22;10591;52.532;13.348;2023-04-24T12:12:20;18.01;60.83
20862;DHT22;10591;52.532;13.348;2023-04-24T12:14:54;18.04;61.10
20862;DHT22;10591;52.532;13.348;2023-04-24T12:17:28;17.84;60.39
20862;DHT22;10591;52.532;13.348;2023-04-24T12:20:01;17.66;60.39
20862;DHT22;10591;52.532;13.348;2023-04-24T12:22:46;18.26;58.92
20862;DHT22;10591;52.532;13.348;2023-04-24T12:25:18;18.47;57.90
20862;DHT22;10591;52.532;13.348;2023-04-24T12:30:44;18.40;56.41
20862;DHT22;10591;52.532;13.348;2023-04-24T12:33:19;18.59;55.79
20862;DHT22;10591;52.532;13.348;2023-04-24T12:35:51;19.42;53.02
20862;DHT22;10591;52.532;13.348;2023-04-24T12:38:26;19.61;49.78
20862;DHT22;10591;52.532;13.348;2023-04-24T12:41:13;20.10;47.62
20862;DHT22;10591;52.532;13.348;2023-04-24T12:43:53;20.57;43.91
20862;DHT22;10591;52.532;13.348;2023-04-24T12:46:26;20.52;42.56
20862;DHT22;10591;52.532;13.348;2023-04-24T12:48:58;20.21;40.90
20862;DHT22;10591;52.532;13.348;2023-04-24T12:51:30;19.42;41.28
20862;DHT22;10591;52.532;13.348;2023-04-24T12:54:01;19.23;43.13
20862;DHT22;10591;52.532;13.348;2023-04-24T12:56:34;19.25;45.61
20862;DHT22;10591;52.532;13.348;2023-04-24T12:59:06;18.82;47.61
20862;DHT22;10591;52.532;13.348;2023-04-24T13:01:38;18.67;48.81
20862;DHT22;10591;52.532;13.348;2023-04-24T13:04:09;18.66;48.62
20862;DHT22;10591;52.532;13.348;2023-04-24T13:06:43;18.75;48.05
20862;DHT22;10591;52.532;13.348;2023-04-24T13:09:16;18.63;48.17
20862;DHT22;10591;52.532;13.348;2023-04-24T13:11:48;18.49;48.48
20862;DHT22;10591;52.532;13.348;2023-04-24T13:14:21;18.71;48.14
20862;DHT22;10591;52.532;13.348;2023-04-24T13:16:51;19.34;47.43
20862;DHT22;10591;52.532;13.348;2023-04-24T13:19:26;19.58;45.84
20862;DHT22;10591;52.532;13.348;2023-04-24T13:21:57;19.70;44.72
20862;DHT22;10591;52.532;13.348;2023-04-24T13:24:28;18.92;42.58
20862;DHT22;10591;52.532;13.348;2023-04-24T13:27:01;18.85;43.38
20862;DHT22;10591;52.532;13.348;2023-04-24T13:29:35;18.48;44.32
20862;DHT22;10591;52.532;13.348;2023-04-24T13:32:06;18.31;46.49
20862;DHT22;10591;52.532;13.348;2023-04-24T13:34:37;18.57;47.14
20862;DHT22;10591;52.532;13.348;2023-04-24T13:37:08;18.38;46.60
20862;DHT22;10591;52.532;13.348;2023-04-24T13:39:39;18.29;46.85
20862;DHT22;10591;52.532;13.348;2023-04-24T13:42:12;18.14;48.77
20862;DHT22;10591;52.532;13.348;2023-04-24T13:44:42;18.06;49.43
20862;DHT22;10591;52.532;13.348;2023-04-24T13:47:15;18.56;48.86
20862;DHT22;10591;52.532;13.348;2023-04-24T13:49:45;18.61;46.56
20862;DHT22;10591;52.532;13.348;2023-04-24T13:52:16;18.86;45.63
20862;DHT22;10591;52.532;13.348;2023-04-24T13:54:46;18.74;44.71
20862;DHT22;10591;52.532;13.348;2023-04-24T13:57:19;18.71;42.95
20862;DHT22;10591;52.532;13.348;2023-04-24T13:59:49;18.98;41.46
20862;DHT22;10591;52.532;13.348;2023-04-24T14:02:20;19.18;41.45
20862;DHT22;10591;52.532;13.348;2023-04-24T14:04:51;18.74;41.99
20862;DHT22;10591;52.532;13.348;2023-04-24T14:07:22;18.34;42.77
20862;DHT22;10591;52.532;13.348;2023-04-24T14:09:54;18.58;44.33
20862;DHT22;10591;52.532;13.348;2023-04-24T14:12:25;18.41;41.92
20862;DHT22;10591;52.532;13.348;2023-04-24T14:14:56;18.48;40.21
20862;DHT22;10591;52.532;13.348;2023-04-24T14:17:27;18.62;39.82
20862;DHT22;10591;52.532;13.348;2023-04-24T14:19:58;18.64;39.30
20862;DHT22;10591;52.532;13.348;2023-04-24T14:22:30;18.56;39.52
20862;DHT22;10591;52.532;13.348;2023-04-24T14:25:00;18.20;40.25
20862;DHT22;10591;52.532;13.348;2023-04-24T14:27:32;18.25;40.06
20862;DHT22;10591;52.532;13.348;2023-04-24T14:30:05;18.73;39.77
20862;DHT22;10591;52.532;13.348;2023-04-24T14:32:36;18.60;39.09
20862;DHT22;10591;52.532;13.348;2023-04-24T14:35:07;18.66;39.10
20862;DHT22;10591;52.532;13.348;2023-04-24T14:37:38;18.57;39.09
20862;DHT22;10591;52.532;13.348;2023-04-24T14:40:11;18.52;39.85
20862;DHT22;10591;52.532;13.348;2023-04-24T14:42:44;18.68;40.37
20862;DHT22;10591;52.532;13.348;2023-04-24T14:45:16;18.44;40.28
20862;DHT22;10591;52.532;13.348;2023-04-24T14:47:47;18.19;40.31
20862;DHT22;10591;52.532;13.348;2023-04-24T14:50:18;18.23;40.95
20862;DHT22;10591;52.532;13.348;2023-04-24T14:52:50;18.06;40.10
20862;DHT22;10591;52.532;13.348;2023-04-24T14:55:21;17.91;40.35
20862;DHT22;10591;52.532;13.348;2023-04-24T14:57:54;17.70;40.92
20862;DHT22;10591;52.532;13.348;2023-04-24T15:00:26;17.91;40.95
20862;DHT22;10591;52.532;13.348;2023-04-24T15:02:57;18.16;41.10
20862;DHT22;10591;52.532;13.348;2023-04-24T15:05:30;18.00;41.55
20862;DHT22;10591;52.532;13.348;2023-04-24T15:08:02;18.04;41.59
20862;DHT22;10591;52.532;13.348;2023-04-24T15:10:33;17.78;42.12
20862;DHT22;10591;52.532;13.348;2023-04-24T15:13:04;17.52;41.69
20862;DHT22;10591;52.532;13.348;2023-04-24T15:15:35;17.46;42.54
20862;DHT22;10591;52.532;13.348;2023-04-24T15:18:07;17.49;42.67
20862;DHT22;10591;52.532;13.348;2023-04-24T15:20:40;17.72;42.21
20862;DHT22;10591;52.532;13.348;2023-04-24T15:23:14;17.60;42.49
20862;DHT22;10591;52.532;13.348;2023-04-24T15:25:44;17.13;42.63
20862;DHT22;10591;52.532;13.348;2023-04-24T15:28:15;17.20;42.70
20862;DHT22;10591;52.532;13.348;2023-04-24T15:30:47;16.89;43.13
20862;DHT22;10591;52.532;13.348;2023-04-24T15:33:18;16.95;43.20
20862;DHT22;10591;52.532;13.348;2023-04-24T15:35:49;16.75;43.53
20862;DHT22;10591;52.532;13.348;2023-04-24T15:38:20;16.53;44.26
20862;DHT22;10591;52.532;13.348;2023-04-24T15:40:50;16.38;44.75
20862;DHT22;10591;52.532;13.348;2023-04-24T15:43:21;16.28;45.32
20862;DHT22;10591;52.532;13.348;2023-04-24T15:45:52;16.38;45.07
20862;DHT22;10591;52.532;13.348;2023-04-24T15:48:23;16.52;45.12
20862;DHT22;10591;52.532;13.348;2023-04-24T15:50:55;16.76;44.41